createdAt,value
2022-10-02T00:04:11.354Z,13.15
2022-10-02T00:11:50.831Z,13.17
2022-10-02T00:18:53.979Z,13.22
2022-10-02T00:26:02.661Z,13.23
2022-10-02T00:33:30.572Z,13.26
2022-10-02T00:40:41.958Z,13.26
2022-10-02T00:47:56.508Z,13.26
2022-10-02T00:55:20.652Z,13.30
2022-10-02T01:02:31.225Z,13.25
2022-10-02T01:09:32.802Z,13.25
2022-10-02T01:16:34.672Z,13.23
2022-10-02T01:23:39.369Z,13.13
2022-10-02T01:30:43.147Z,13.10
2022-10-02T01:37:44.708Z,13.18
2022-10-02T01:44:46.286Z,13.16
2022-10-02T01:51:53.613Z,13.09
2022-10-02T01:59:16.294Z,13.02
2022-10-02T02:06:39.897Z,13.05
2022-10-02T02:13:50.458Z,12.97
2022-10-02T02:20:52.114Z,12.99
2022-10-02T02:27:58.141Z,12.97
2022-10-02T02:35:30.127Z,13.01
2022-10-02T02:42:33.217Z,12.96
2022-10-02T02:49:44.175Z,12.97
2022-10-02T02:56:45.772Z,12.94
2022-10-02T03:03:47.674Z,12.90
2022-10-02T03:11:05.491Z,12.88
2022-10-02T03:18:39.537Z,12.85
2022-10-02T03:25:52.965Z,12.83
2022-10-02T03:32:56.211Z,12.85
2022-10-02T03:39:58.761Z,12.84
2022-10-02T03:47:00.362Z,12.77
2022-10-02T03:54:02.062Z,12.77
2022-10-02T04:01:13.888Z,12.75
2022-10-02T04:08:21.287Z,12.73
2022-10-02T04:15:28.573Z,12.70
2022-10-02T04:22:37.436Z,12.70
2022-10-02T04:29:42.870Z,12.70
2022-10-02T04:36:53.402Z,12.75
2022-10-02T04:44:13.726Z,12.74
2022-10-02T04:51:27.838Z,12.76
2022-10-02T04:58:57.567Z,12.79
2022-10-02T05:06:22.294Z,12.87
2022-10-02T05:13:36.974Z,12.89
2022-10-02T05:21:15.000Z,12.93
2022-10-02T05:28:53.979Z,12.88
2022-10-02T05:36:09.195Z,12.95
2022-10-02T05:43:13.041Z,12.99
2022-10-02T05:50:18.563Z,13.02
2022-10-02T05:57:36.774Z,13.10
2022-10-02T06:04:40.999Z,13.13
2022-10-02T06:11:49.595Z,13.36
2022-10-02T06:18:54.342Z,13.53
2022-10-02T06:25:58.144Z,13.50
2022-10-02T06:33:20.784Z,13.57
2022-10-02T06:40:47.039Z,13.61
2022-10-02T06:48:17.605Z,13.65
2022-10-02T06:55:25.223Z,13.69
2022-10-02T07:02:52.717Z,13.78
2022-10-02T07:10:33.431Z,14.04
2022-10-02T07:17:34.826Z,14.20
2022-10-02T07:24:41.939Z,14.40
2022-10-02T07:31:53.031Z,14.49
2022-10-02T07:39:16.455Z,14.83
2022-10-02T07:46:25.058Z,15.12
2022-10-02T07:53:49.146Z,15.45
2022-10-02T08:00:56.427Z,15.81
2022-10-02T08:08:04.555Z,15.91
2022-10-02T08:15:07.092Z,16.07
2022-10-02T08:22:38.716Z,16.47
2022-10-02T08:29:43.533Z,16.50
2022-10-02T08:37:09.903Z,16.50
2022-10-02T08:44:23.569Z,16.47
2022-10-02T08:51:31.059Z,16.73
2022-10-02T08:58:58.044Z,17.03
2022-10-02T09:06:02.496Z,17.08
2022-10-02T09:13:19.397Z,17.21
2022-10-02T09:20:43.644Z,17.24
2022-10-02T09:28:08.805Z,17.43
2022-10-02T09:35:34.668Z,17.38
2022-10-02T09:42:39.182Z,17.24
2022-10-02T09:49:48.154Z,17.66
2022-10-02T09:57:25.276Z,18.47
2022-10-02T10:05:04.926Z,19.49
2022-10-02T10:12:41.417Z,19.49
2022-10-02T10:19:52.983Z,18.91
2022-10-02T10:27:13.333Z,18.13
2022-10-02T10:34:36.113Z,18.47
2022-10-02T10:42:09.043Z,19.85
2022-10-02T10:49:46.043Z,19.51
2022-10-02T10:56:54.654Z,18.94
2022-10-02T11:04:00.019Z,18.65
2022-10-02T11:11:10.542Z,18.40
2022-10-02T11:18:18.625Z,18.51
2022-10-02T11:25:40.076Z,18.41
2022-10-02T11:33:18.559Z,18.15
2022-10-02T11:40:41.592Z,17.71
2022-10-02T11:48:12.374Z,19.88
2022-10-02T11:55:37.661Z,22.40
2022-10-02T12:02:53.171Z,23.78
2022-10-02T12:10:33.222Z,24.16
2022-10-02T12:17:52.921Z,24.97
2022-10-02T12:25:30.265Z,26.60
2022-10-02T12:33:08.065Z,24.19
2022-10-02T12:40:35.668Z,22.90
2022-10-02T12:47:47.221Z,22.88
2022-10-02T12:54:56.808Z,21.79
2022-10-02T13:02:59.872Z,23.61
2022-10-02T13:10:05.161Z,22.97
2022-10-02T13:17:10.473Z,24.50
2022-10-02T13:24:15.014Z,23.12
2022-10-02T13:31:23.153Z,22.30
2022-10-02T13:38:50.028Z,21.71
2022-10-02T13:46:06.735Z,21.55
2022-10-02T13:53:34.238Z,21.00
2022-10-02T14:00:38.812Z,21.33
2022-10-02T14:07:48.112Z,21.05
2022-10-02T14:15:08.274Z,20.47
2022-10-02T14:22:33.731Z,20.30
2022-10-02T14:30:11.255Z,20.17
2022-10-02T14:37:50.107Z,19.87
2022-10-02T14:45:28.538Z,19.44
2022-10-02T14:52:53.082Z,19.30
2022-10-02T15:00:11.361Z,19.21
2022-10-02T15:07:18.202Z,19.10
2022-10-02T15:14:35.811Z,19.26
2022-10-02T15:22:19.229Z,19.08
2022-10-02T15:29:52.510Z,18.79
2022-10-02T15:37:21.926Z,18.56
2022-10-02T15:44:31.431Z,18.77
2022-10-02T15:51:45.991Z,18.74
2022-10-02T15:59:08.856Z,18.73
2022-10-02T16:06:38.767Z,18.66
2022-10-02T16:14:02.639Z,18.50
2022-10-02T16:21:22.215Z,18.26
2022-10-02T16:28:57.667Z,18.16
2022-10-02T16:36:02.602Z,18.00
2022-10-02T16:43:19.453Z,18.01
2022-10-02T16:50:58.667Z,17.98
2022-10-02T16:58:11.853Z,17.88
2022-10-02T17:05:22.486Z,17.83
2022-10-02T17:12:59.278Z,17.78
2022-10-02T17:20:00.730Z,17.67
2022-10-02T17:27:11.283Z,17.66
2022-10-02T17:34:32.446Z,17.56
2022-10-02T17:42:05.566Z,17.45
2022-10-02T17:49:33.440Z,17.29
2022-10-02T17:56:55.243Z,17.21
2022-10-02T18:04:02.886Z,17.09
2022-10-02T18:11:08.619Z,17.03
2022-10-02T18:18:58.252Z,16.96
2022-10-02T18:26:20.921Z,16.87
2022-10-02T18:33:25.942Z,16.80
2022-10-02T18:40:29.282Z,16.74
2022-10-02T18:47:54.393Z,16.57
2022-10-02T18:55:14.506Z,16.37
2022-10-02T19:02:50.125Z,16.34
2022-10-02T19:10:31.775Z,16.27
2022-10-02T19:17:34.696Z,16.18
2022-10-02T19:24:38.624Z,16.14
2022-10-02T19:31:41.442Z,16.00
2022-10-02T19:38:43.165Z,15.92
2022-10-02T19:45:44.750Z,15.83
2022-10-02T19:52:51.143Z,15.67
2022-10-02T19:59:53.362Z,15.54
2022-10-02T20:06:59.374Z,15.56
2022-10-02T20:14:05.307Z,15.45
2022-10-02T20:21:11.650Z,15.35
2022-10-02T20:28:44.803Z,15.35
2022-10-02T20:35:55.991Z,15.25
2022-10-02T20:43:16.208Z,15.23
2022-10-02T20:50:36.064Z,15.18
2022-10-02T20:58:08.123Z,15.09
2022-10-02T21:05:48.606Z,15.09
2022-10-02T21:13:00.658Z,14.98
2022-10-02T21:20:08.143Z,14.92
2022-10-02T21:27:22.776Z,14.78
2022-10-02T21:34:38.654Z,14.73
2022-10-02T21:42:17.496Z,14.76
2022-10-02T21:49:43.833Z,14.68
2022-10-02T21:57:07.231Z,14.60
2022-10-02T22:04:39.793Z,14.49
2022-10-02T22:12:06.480Z,14.56
2022-10-02T22:19:23.150Z,14.47
2022-10-02T22:26:38.224Z,14.31
2022-10-02T22:34:04.010Z,14.28
2022-10-02T22:41:17.758Z,14.26
2022-10-02T22:48:58.847Z,14.28
2022-10-02T22:56:00.580Z,14.21
2022-10-02T23:03:04.600Z,14.18
2022-10-02T23:10:09.166Z,14.16
2022-10-02T23:17:20.240Z,14.07
2022-10-02T23:24:26.526Z,14.01
2022-10-02T23:31:41.556Z,14.00
2022-10-02T23:38:48.976Z,13.85
2022-10-02T23:46:02.519Z,13.88
2022-10-02T23:53:27.322Z,13.91
